Time;durP1;ratioP1;P1;durP2;ratioP2;P2;SDS_P1;SDS_P2;PMS_P1;PMS_P2;Temp;Humidity;BMP_temperature;BMP_pressure;BME280_temperature;BME280_humidity;BME280_pressure;Samples;Min_cycle;Max_cycle;Signal;HPM_P1;HPM_P2
2022/12/06 00:01:33;;;;;;;2.47;2.35;;;;;;;5.42;100.00;99908.09;6154692;23;20446;-77
2022/12/06 00:04:01;;;;;;;4.35;3.35;;;;;;;5.46;100.00;99910.84;6181262;23;20013;-77
2022/12/06 00:06:29;;;;;;;0.80;0.80;;;;;;;5.47;100.00;99913.16;6181161;23;20019;-77
2022/12/06 00:08:55;;;;;;;2.38;2.15;;;;;;;5.52;100.00;99926.50;6181578;23;20068;-76
2022/12/06 00:11:24;;;;;;;2.15;1.85;;;;;;;5.48;100.00;99902.97;6181959;23;20013;-77
2022/12/06 00:13:54;;;;;;;1.83;1.73;;;;;;;5.55;100.00;99925.69;6182081;23;20085;-77
2022/12/06 00:16:20;;;;;;;2.50;2.30;;;;;;;5.60;100.00;99933.50;6156430;23;20013;-76
2022/12/06 00:18:46;;;;;;;1.95;1.17;;;;;;;5.56;100.00;99932.75;6156486;23;20021;-76
2022/12/06 00:21:13;;;;;;;2.10;1.35;;;;;;;5.61;100.00;99940.59;6183513;23;20005;-77
2022/12/06 00:23:41;;;;;;;2.60;2.45;;;;;;;5.57;100.00;99928.81;6183611;23;20212;-76
2022/12/06 00:26:07;;;;;;;3.08;2.53;;;;;;;5.63;100.00;99937.41;6183356;23;20017;-76
2022/12/06 00:28:33;;;;;;;1.83;1.50;;;;;;;5.66;100.00;99930.34;6183729;23;20060;-77
2022/12/06 00:31:00;;;;;;;1.90;1.80;;;;;;;5.59;100.00;99951.19;6183380;23;20013;-77
2022/12/06 00:33:27;;;;;;;2.25;2.05;;;;;;;5.58;100.00;99960.63;6155643;23;20067;-76
2022/12/06 00:36:16;;;;;;;2.58;1.33;;;;;;;5.50;100.00;99961.13;6156945;23;20454;-76
2022/12/06 00:38:42;;;;;;;2.58;2.15;;;;;;;5.54;100.00;99961.88;6182963;23;20021;-77
2022/12/06 00:41:10;;;;;;;2.90;2.70;;;;;;;5.39;100.00;99957.63;6183121;23;20067;-77
2022/12/06 00:43:36;;;;;;;0.68;0.65;;;;;;;5.36;100.00;99977.72;6183037;23;20087;-77
2022/12/06 00:46:03;;;;;;;1.40;1.30;;;;;;;5.47;100.00;99979.19;6183215;23;20095;-77
2022/12/06 00:48:29;;;;;;;1.13;1.05;;;;;;;5.50;100.00;99977.63;6182361;23;20334;-76
2022/12/06 00:50:55;;;;;;;3.50;3.00;;;;;;;5.45;100.00;99964.28;6182470;23;20052;-77
2022/12/06 00:53:21;;;;;;;3.83;1.48;;;;;;;5.44;100.00;99960.75;6182880;23;20076;-76
2022/12/06 00:55:47;;;;;;;0.95;0.93;;;;;;;5.51;100.00;99977.19;6183008;23;20013;-76
2022/12/06 00:58:13;;;;;;;5.82;2.58;;;;;;;5.37;100.00;99980.06;6182765;23;20449;-77
2022/12/06 01:00:38;;;;;;;4.15;1.88;;;;;;;5.41;100.00;99986.31;6182451;23;20022;-77
2022/12/06 01:03:04;;;;;;;5.07;3.20;;;;;;;5.41;100.00;99967.06;6179082;23;20358;-77
2022/12/06 01:05:30;;;;;;;2.10;1.77;;;;;;;5.44;100.00;99974.50;6180496;23;20017;-82
2022/12/06 01:07:56;;;;;;;2.28;2.08;;;;;;;5.43;100.00;99969.41;6129079;23;20017;-82
2022/12/06 01:10:21;;;;;;;3.20;2.20;;;;;;;5.41;100.00;99980.81;6155169;23;20001;-82
2022/12/06 01:12:47;;;;;;;2.58;1.90;;;;;;;5.47;100.00;99979.19;6153928;23;20016;-82
2022/12/06 01:15:12;;;;;;;3.53;3.17;;;;;;;5.47;100.00;99976.44;6129818;23;20012;-83
2022/12/06 01:17:38;;;;;;;3.17;2.15;;;;;;;5.44;100.00;99966.25;6156048;23;20013;-82
2022/12/06 01:20:05;;;;;;;1.48;1.38;;;;;;;5.41;100.00;99947.81;6128906;23;20013;-83
2022/12/06 01:22:30;;;;;;;4.32;1.85;;;;;;;5.37;100.00;99947.06;6155933;23;20009;-82
2022/12/06 01:24:56;;;;;;;3.65;3.38;;;;;;;5.34;100.00;99950.59;6129559;23;20067;-82
2022/12/06 01:27:21;;;;;;;2.45;2.08;;;;;;;5.33;100.00;99937.28;6129928;23;20017;-82
2022/12/06 01:29:47;;;;;;;2.60;2.40;;;;;;;5.38;100.00;99915.59;6155901;23;20025;-82
2022/12/06 01:32:12;;;;;;;2.92;2.13;;;;;;;5.34;100.00;99920.34;6153972;23;20447;-83
2022/12/06 01:34:38;;;;;;;3.97;1.60;;;;;;;5.29;100.00;99917.25;6181779;23;20009;-82
2022/12/06 01:37:04;;;;;;;1.77;1.52;;;;;;;5.30;100.00;99941.59;6154136;23;20005;-82
2022/12/06 01:39:29;;;;;;;4.13;2.08;;;;;;;5.36;100.00;99951.00;6155169;23;20087;-82
2022/12/06 01:41:55;;;;;;;1.50;1.40;;;;;;;5.38;100.00;99954.09;6154743;23;20501;-92
2022/12/06 01:44:37;;;;;;;1.60;1.48;;;;;;;5.40;100.00;99929.75;6129223;23;20111;-91
2022/12/06 01:47:04;;;;;;;2.15;2.00;;;;;;;5.41;100.00;99947.03;6181871;23;20044;-92
2022/12/06 01:49:33;;;;;;;1.17;1.08;;;;;;;5.45;100.00;99948.56;6129716;23;20001;-90
2022/12/06 01:52:07;;;;;;;1.58;1.48;;;;;;;5.39;100.00;99949.38;6154035;23;20152;-91
2022/12/06 01:54:33;;;;;;;2.97;2.78;;;;;;;5.33;100.00;99938.06;6155847;23;20151;-90
2022/12/06 01:56:59;;;;;;;2.53;2.25;;;;;;;5.31;100.00;99947.88;6128962;23;20045;-91
2022/12/06 01:59:24;;;;;;;3.83;2.35;;;;;;;5.25;100.00;99950.28;6155555;23;20009;-82
2022/12/06 02:02:01;;;;;;;5.43;2.70;;;;;;;5.34;100.00;99964.34;6132037;23;20029;-80
2022/12/06 02:04:27;;;;;;;2.47;2.28;;;;;;;5.26;100.00;99935.31;6179478;23;20017;-81
2022/12/06 02:06:54;;;;;;;3.00;2.80;;;;;;;5.27;100.00;99953.41;6159771;23;20009;-82
2022/12/06 02:09:20;;;;;;;1.27;1.17;;;;;;;5.26;100.00;99935.31;6183315;23;20017;-82
2022/12/06 02:11:46;;;;;;;2.55;1.77;;;;;;;5.28;100.00;99930.22;6160587;23;20027;-82
2022/12/06 02:14:18;;;;;;;2.22;2.00;;;;;;;5.26;100.00;99951.84;6183076;23;20036;-82
2022/12/06 02:17:05;;;;;;;1.98;1.75;;;;;;;5.31;100.00;99940.41;6184438;23;20013;-82
2022/12/06 02:19:43;;;;;;;0.90;0.90;;;;;;;5.33;100.00;99923.50;6211961;23;20013;-81
2022/12/06 02:22:18;;;;;;;1.42;1.33;;;;;;;5.34;100.00;99930.59;6211693;23;20020;-82
2022/12/06 02:25:02;;;;;;;1.48;1.27;;;;;;;5.34;100.00;99931.34;6162095;23;20458;-82
2022/12/06 02:27:59;;;;;;;0.95;0.77;;;;;;;5.44;100.00;99936.00;6212366;23;20012;-82
2022/12/06 02:30:30;;;;;;;4.38;2.83;;;;;;;5.47;100.00;99924.19;6187756;23;20016;-82
2022/12/06 02:32:59;;;;;;;2.28;1.65;;;;;;;5.44;100.00;99925.00;6183472;23;20009;-82
2022/12/06 02:35:27;;;;;;;1.63;1.52;;;;;;;5.40;100.00;99910.50;6161623;23;20005;-82
2022/12/06 02:37:57;;;;;;;0.80;0.80;;;;;;;5.35;100.00;99905.41;6186369;23;20394;-82
2022/12/06 02:40:29;;;;;;;0.77;0.77;;;;;;;5.43;100.00;99919.88;6186492;23;20008;-82
2022/12/06 02:43:04;;;;;;;1.83;1.67;;;;;;;5.46;100.00;99916.34;6162439;23;20020;-82
2022/12/06 02:45:36;;;;;;;0.55;0.55;;;;;;;5.46;100.00;99910.84;6184024;23;20358;-82
2022/12/06 02:48:03;;;;;;;1.27;1.17;;;;;;;5.36;100.00;99900.69;6186557;23;20017;-82
2022/12/06 02:50:36;;;;;;;0.40;0.40;;;;;;;5.40;100.00;99876.69;6186916;23;20023;-82
2022/12/06 02:53:03;;;;;;;2.75;1.40;;;;;;;5.38;100.00;99857.84;6184718;23;20016;-82
2022/12/06 02:55:29;;;;;;;1.33;1.23;;;;;;;5.41;100.00;99848.78;6186808;23;20076;-82
2022/12/06 02:57:56;;;;;;;0.90;0.90;;;;;;;5.43;100.00;99857.41;6160179;23;20013;-82
2022/12/06 03:00:40;;;;;;;0.50;0.50;;;;;;;5.39;100.00;99851.16;6161867;23;20021;-82
2022/12/06 03:03:29;;;;;;;1.75;1.65;;;;;;;5.30;100.00;99859.09;6185984;23;20021;-82
2022/12/06 03:06:07;;;;;;;0.52;0.52;;;;;;;5.46;100.00;99878.59;6180907;23;20092;-82
2022/12/06 03:08:43;;;;;;;1.67;1.58;;;;;;;5.44;100.00;99874.69;6183030;23;20017;-81
2022/12/06 03:11:09;;;;;;;1.08;0.93;;;;;;;5.37;100.00;99867.28;6182571;23;20040;-81
2022/12/06 03:13:46;;;;;;;1.30;1.20;;;;;;;5.47;100.00;99893.13;6157655;23;20020;-81
2022/12/06 03:16:25;;;;;;;1.58;1.50;;;;;;;5.55;100.00;99908.38;6155227;23;20021;-81
2022/12/06 03:19:00;;;;;;;1.02;0.40;;;;;;;5.45;100.00;99909.28;6155908;23;20017;-81
2022/12/06 03:21:36;;;;;;;1.13;0.40;;;;;;;5.26;100.00;99938.06;6155729;23;20030;-81
2022/12/06 03:24:04;;;;;;;0.43;0.43;;;;;;;5.26;100.00;99935.31;6131711;23;20095;-81
2022/12/06 03:26:31;;;;;;;1.67;1.10;;;;;;;5.21;100.00;99941.28;6157011;23;20021;-81
2022/12/06 03:28:59;;;;;;;0.00;0.00;;;;;;;5.10;100.00;99927.59;6130698;23;20419;-82
2022/12/06 03:31:28;;;;;;;0.75;0.65;;;;;;;4.87;100.00;99924.59;6132368;23;20463;-81
2022/12/06 03:34:00;;;;;;;0.20;0.20;;;;;;;4.85;100.00;99931.69;6155584;23;20013;-82
2022/12/06 03:36:26;;;;;;;0.40;0.32;;;;;;;4.72;100.00;99922.31;6156064;23;20072;-81
2022/12/06 03:38:58;;;;;;;0.25;0.25;;;;;;;4.58;100.00;99918.44;6155975;23;20043;-81
2022/12/06 03:41:27;;;;;;;0.80;0.80;;;;;;;4.51;100.00;99923.97;6131386;23;20017;-81
2022/12/06 03:43:53;;;;;;;0.55;0.55;;;;;;;4.49;100.00;99936.56;6131788;23;20351;-81
2022/12/06 03:46:46;;;;;;;0.00;0.00;;;;;;;4.47;100.00;99941.66;6155398;23;20017;-81
2022/12/06 03:49:18;;;;;;;0.10;0.10;;;;;;;4.42;100.00;99918.13;6151083;23;20047;-81
2022/12/06 03:51:44;;;;;;;0.57;0.57;;;;;;;4.41;100.00;99924.03;6130926;23;20016;-81
2022/12/06 03:54:09;;;;;;;1.08;0.85;;;;;;;4.43;100.00;99918.91;6180769;23;19997;-81
2022/12/06 03:56:36;;;;;;;0.00;0.00;;;;;;;4.39;100.00;99921.66;6157795;23;20019;-82
2022/12/06 03:59:03;;;;;;;0.30;0.30;;;;;;;4.39;100.00;99921.66;6153844;23;20091;-82
2022/12/06 04:01:29;;;;;;;0.73;0.65;;;;;;;4.37;100.00;99924.00;6130774;23;20017;-82
2022/12/06 04:03:54;;;;;;;0.10;0.10;;;;;;;4.38;100.00;99916.56;6129951;23;20036;-82
2022/12/06 04:06:20;;;;;;;0.15;0.15;;;;;;;4.35;100.00;99907.16;6180227;23;20024;-82
2022/12/06 04:08:45;;;;;;;0.28;0.28;;;;;;;4.40;100.00;99915.00;6155530;23;20084;-82
2022/12/06 04:11:10;;;;;;;0.10;0.10;;;;;;;4.30;100.00;99902.09;6129912;23;20009;-82
2022/12/06 04:13:37;;;;;;;0.10;0.10;;;;;;;4.36;100.00;99916.97;6155837;23;20013;-93
2022/12/06 04:16:03;;;;;;;0.00;0.00;;;;;;;4.33;100.00;99922.50;6106872;23;20007;-94
2022/12/06 04:18:28;;;;;;;0.08;0.08;;;;;;;4.33;100.00;99928.75;6128809;23;20017;-94
2022/12/06 04:23:50;;;;;;;0.05;0.05;;;;;;;4.39;100.00;99932.66;6158900;23;20040;-94
2022/12/06 04:26:20;;;;;;;0.20;0.20;;;;;;;4.44;100.00;99931.47;6155837;23;20044;-95
2022/12/06 04:39:44;;;;;;;0.00;0.00;;;;;;;4.53;100.00;99954.56;6160918;23;20459;-82
2022/12/06 04:44:54;;;;;;;0.00;0.00;;;;;;;4.52;100.00;99958.50;6159848;23;20043;-82
2022/12/06 04:47:20;;;;;;;0.10;0.10;;;;;;;4.55;100.00;99965.94;6130556;23;20020;-82
2022/12/06 04:49:45;;;;;;;0.20;0.20;;;;;;;4.54;100.00;99972.63;6129705;23;20067;-82
2022/12/06 04:52:11;;;;;;;0.05;0.05;;;;;;;4.52;100.00;99969.50;6132010;23;20063;-93
2022/12/06 04:54:37;;;;;;;0.30;0.30;;;;;;;4.49;100.00;99964.03;6131434;23;20001;-94
2022/12/06 04:57:03;;;;;;;0.08;0.08;;;;;;;4.51;100.00;99959.69;6131529;23;20017;-94
2022/12/06 04:59:29;;;;;;;0.00;0.00;;;;;;;4.51;100.00;99951.44;6155533;23;20059;-93
2022/12/06 05:01:55;;;;;;;0.03;0.03;;;;;;;4.50;100.00;99951.84;6153874;23;20133;-93
2022/12/06 05:04:21;;;;;;;0.00;0.00;;;;;;;4.42;100.00;99947.53;6156322;23;20362;-92
2022/12/06 05:06:47;;;;;;;0.10;0.10;;;;;;;4.48;100.00;99965.97;6129815;23;20447;-92
2022/12/06 05:09:13;;;;;;;0.03;0.03;;;;;;;4.47;100.00;99956.16;6181439;23;20060;-93
2022/12/06 05:11:38;;;;;;;0.43;0.43;;;;;;;4.38;100.00;99936.56;6107453;23;20013;-93
2022/12/06 05:14:04;;;;;;;0.35;0.35;;;;;;;4.45;100.00;99946.78;6180429;23;20063;-93
2022/12/06 05:16:29;;;;;;;0.10;0.10;;;;;;;4.39;100.00;99929.13;6183218;23;20085;-94
2022/12/06 05:18:55;;;;;;;0.20;0.20;;;;;;;4.42;100.00;99937.34;6153921;23;20009;-93
2022/12/06 05:21:22;;;;;;;0.00;0.00;;;;;;;4.45;100.00;99942.03;6131077;23;20013;-92
2022/12/06 05:23:48;;;;;;;0.00;0.00;;;;;;;4.39;100.00;99935.41;6182453;23;20087;-92
2022/12/06 05:26:16;;;;;;;0.10;0.10;;;;;;;4.38;100.00;99931.09;6154012;23;20103;-93
2022/12/06 05:28:43;;;;;;;0.10;0.05;;;;;;;4.41;100.00;99948.75;6183005;23;20043;-91
2022/12/06 05:31:08;;;;;;;0.00;0.00;;;;;;;4.40;100.00;99949.91;6154015;23;20449;-81
2022/12/06 05:33:34;;;;;;;0.22;0.22;;;;;;;4.37;100.00;99940.50;6154838;23;20488;-82
2022/12/06 05:36:05;;;;;;;0.00;0.00;;;;;;;4.40;100.00;99947.97;6155777;23;20399;-82
2022/12/06 05:38:32;;;;;;;0.00;0.00;;;;;;;4.34;100.00;99941.28;6128596;23;20024;-82
2022/12/06 05:40:57;;;;;;;0.32;0.30;;;;;;;4.32;100.00;99940.94;6131255;23;20009;-81
2022/12/06 05:43:23;;;;;;;0.20;0.20;;;;;;;4.36;100.00;99955.44;6154115;23;20498;-82
2022/12/06 05:45:52;;;;;;;5.00;0.47;;;;;;;4.36;100.00;99949.16;6130869;23;20016;-82
2022/12/06 05:48:17;;;;;;;0.52;0.52;;;;;;;4.36;100.00;99949.94;6155670;23;20031;-82
2022/12/06 05:50:45;;;;;;;0.00;0.00;;;;;;;4.38;100.00;99963.25;6156857;23;20449;-92
2022/12/06 05:53:10;;;;;;;0.00;0.00;;;;;;;4.36;100.00;99960.91;6135006;23;20467;-92
2022/12/06 05:55:36;;;;;;;0.00;0.00;;;;;;;4.32;100.00;99942.88;6185621;23;20024;-91
2022/12/06 05:58:01;;;;;;;0.15;0.15;;;;;;;4.44;100.00;99951.47;6135325;23;20044;-91
2022/12/06 06:00:27;;;;;;;0.32;0.32;;;;;;;4.36;100.00;99944.44;6185418;23;20009;-92
2022/12/06 06:02:52;;;;;;;0.20;0.20;;;;;;;4.33;100.00;99928.75;6159230;23;20016;-93
2022/12/06 06:05:18;;;;;;;0.20;0.20;;;;;;;4.44;100.00;99945.97;6133886;23;20525;-93
2022/12/06 06:07:43;;;;;;;0.52;0.52;;;;;;;4.43;100.00;99935.38;6133757;23;20504;-92
2022/12/06 06:10:09;;;;;;;0.10;0.10;;;;;;;4.42;100.00;99944.81;6158516;23;20432;-93
2022/12/06 06:12:35;;;;;;;0.00;0.00;;;;;;;4.36;100.00;99949.94;6158624;23;20439;-93
2022/12/06 06:15:00;;;;;;;0.03;0.03;;;;;;;4.46;100.00;99960.09;6157884;23;20099;-91
2022/12/06 06:17:26;;;;;;;0.10;0.10;;;;;;;4.48;100.00;99952.25;6183622;23;20005;-93
2022/12/06 06:19:51;;;;;;;0.30;0.30;;;;;;;4.43;100.00;99965.59;6155662;23;20021;-92
2022/12/06 06:22:21;;;;;;;0.00;0.00;;;;;;;4.43;100.00;99982.88;6156904;23;20017;-92
2022/12/06 06:24:47;;;;;;;0.20;0.20;;;;;;;4.44;100.00;99989.94;6131032;23;20083;-91
2022/12/06 06:27:13;;;;;;;0.30;0.30;;;;;;;4.39;100.00;99992.28;6157771;23;20048;-90
2022/12/06 06:29:38;;;;;;;0.43;0.43;;;;;;;4.32;100.00;99992.31;6156453;23;20119;-81
2022/12/06 06:32:04;;;;;;;0.00;0.00;;;;;;;4.41;100.00;100006.41;6133456;23;20519;-81
2022/12/06 06:34:29;;;;;;;0.10;0.10;;;;;;;4.40;100.00;99993.88;6132858;23;20017;-81
2022/12/06 06:36:55;;;;;;;0.00;0.00;;;;;;;4.38;100.00;99996.22;6155104;23;20037;-81
2022/12/06 06:39:20;;;;;;;0.55;0.47;;;;;;;4.30;100.00;99992.69;6156208;23;20068;-81
2022/12/06 06:41:46;;;;;;;0.00;0.00;;;;;;;4.33;100.00;99996.63;6131851;23;20013;-81
2022/12/06 06:44:12;;;;;;;0.10;0.10;;;;;;;4.35;100.00;99997.00;6131562;23;20739;-81
2022/12/06 06:46:39;;;;;;;0.55;0.55;;;;;;;4.34;100.00;99987.19;6155627;23;20017;-81
2022/12/06 06:49:05;;;;;;;0.00;0.00;;;;;;;4.38;100.00;99997.00;6156461;23;20017;-82
2022/12/06 06:51:31;;;;;;;0.00;0.00;;;;;;;4.34;100.00;99998.19;6157160;23;20431;-82
2022/12/06 06:53:57;;;;;;;0.00;0.00;;;;;;;4.38;100.00;99999.75;6131572;23;20019;-82
2022/12/06 06:56:22;;;;;;;0.73;0.68;;;;;;;4.26;100.00;100000.16;6106418;23;20107;-82
2022/12/06 06:58:48;;;;;;;0.00;0.00;;;;;;;4.33;100.00;100013.09;6130075;23;20024;-82
2022/12/06 07:01:19;;;;;;;0.20;0.20;;;;;;;4.31;100.00;100008.00;6132096;23;20025;-82
2022/12/06 07:03:45;;;;;;;0.22;0.13;;;;;;;4.31;100.00;100016.25;6130837;23;20462;-82
2022/12/06 07:06:11;;;;;;;0.30;0.30;;;;;;;4.38;100.00;100018.19;6155685;23;20009;-90
2022/12/06 07:08:38;;;;;;;0.35;0.35;;;;;;;4.41;100.00;100015.41;6156357;23;20444;-91
2022/12/06 07:11:04;;;;;;;0.17;0.17;;;;;;;4.40;100.00;100013.88;6131485;23;20063;-91
2022/12/06 07:13:30;;;;;;;0.43;0.43;;;;;;;4.39;100.00;100014.25;6182556;23;20013;-91
2022/12/06 07:15:57;;;;;;;2.92;0.40;;;;;;;4.37;100.00;100000.91;6182610;23;20002;-92
2022/12/06 07:18:22;;;;;;;0.43;0.35;;;;;;;4.45;100.00;100002.47;6132216;23;20013;-91
2022/12/06 07:20:48;;;;;;;0.05;0.05;;;;;;;4.52;100.00;100010.69;6180439;23;20083;-91
2022/12/06 07:23:14;;;;;;;0.20;0.20;;;;;;;4.61;100.00;100022.03;6154299;23;20016;-90
2022/12/06 07:25:40;;;;;;;0.43;0.43;;;;;;;4.67;100.00;100027.91;6155659;23;20020;-82
2022/12/06 07:28:05;;;;;;;0.13;0.13;;;;;;;4.65;100.00;100022.81;6152868;23;20009;-80
2022/12/06 07:30:32;;;;;;;1.67;1.58;;;;;;;4.57;100.00;100018.50;6182989;23;20013;-82
2022/12/06 07:32:57;;;;;;;0.55;0.55;;;;;;;4.53;100.00;100017.75;6154867;23;20017;-81
2022/12/06 07:35:23;;;;;;;0.00;0.00;;;;;;;4.50;100.00;100015.78;6129107;23;20402;-81
2022/12/06 07:37:49;;;;;;;0.20;0.20;;;;;;;4.50;100.00;100015.00;6131433;23;20020;-82
2022/12/06 07:40:15;;;;;;;0.98;0.98;;;;;;;4.46;100.00;100020.50;6155093;23;20013;-81
2022/12/06 07:45:25;;;;;;;1.05;0.55;;;;;;;4.37;100.00;100016.63;6133442;23;20028;-89
2022/12/06 07:47:50;;;;;;;0.00;0.00;;;;;;;4.38;100.00;100013.47;6151431;23;20001;-88
2022/12/06 07:50:21;;;;;;;0.20;0.20;;;;;;;4.48;100.00;100022.88;6130592;23;20013;-89
2022/12/06 07:52:48;;;;;;;0.45;0.45;;;;;;;4.51;100.00;100022.88;6161056;23;20013;-89
2022/12/06 07:55:15;;;;;;;0.25;0.25;;;;;;;4.50;100.00;100021.28;6138559;23;20008;-89
2022/12/06 07:57:41;;;;;;;0.00;0.00;;;;;;;4.48;100.00;100023.66;6136647;23;20481;-90
2022/12/06 08:00:08;;;;;;;0.98;0.98;;;;;;;4.54;100.00;100046.78;6152090;23;20005;-91
2022/12/06 08:02:39;;;;;;;0.30;0.30;;;;;;;4.49;100.00;100049.94;6130923;23;20028;-90
2022/12/06 08:05:05;;;;;;;0.40;0.40;;;;;;;4.50;100.00;100061.69;6128198;23;20523;-92
2022/12/06 08:07:31;;;;;;;0.40;0.40;;;;;;;4.46;100.00;100061.72;6155348;23;20026;-91
2022/12/06 08:09:57;;;;;;;0.22;0.22;;;;;;;4.52;100.00;100056.63;6155923;23;20009;-90
2022/12/06 08:12:22;;;;;;;0.03;0.03;;;;;;;4.52;100.00;100062.91;6156292;23;20036;-87
2022/12/06 08:14:48;;;;;;;1.00;1.00;;;;;;;4.58;100.00;100055.81;6155803;23;20013;-90
2022/12/06 08:17:14;;;;;;;0.40;0.40;;;;;;;4.60;100.00;100053.47;6130782;23;20055;-91
2022/12/06 08:19:39;;;;;;;1.17;1.10;;;;;;;4.70;100.00;100058.13;6105884;23;20104;-90
2022/12/06 08:22:05;;;;;;;0.50;0.50;;;;;;;4.77;100.00;100062.06;6129912;23;20012;-82
2022/12/06 08:24:30;;;;;;;0.82;0.50;;;;;;;4.74;100.00;100060.06;6126917;23;20020;-92
2022/12/06 08:26:58;;;;;;;0.10;0.10;;;;;;;4.75;100.00;100064.41;6131608;23;20021;-91
2022/12/06 08:29:23;;;;;;;0.30;0.28;;;;;;;4.76;100.00;100055.78;6154103;23;20419;-90
2022/12/06 08:31:49;;;;;;;0.00;0.00;;;;;;;4.73;100.00;100061.28;6130704;23;20019;-83
2022/12/06 08:34:15;;;;;;;0.05;0.05;;;;;;;4.78;100.00;100063.59;6182658;23;20016;-83
2022/12/06 08:36:41;;;;;;;1.05;1.02;;;;;;;4.78;100.00;100066.34;6156802;23;20001;-83
2022/12/06 08:39:07;;;;;;;0.80;0.80;;;;;;;4.82;100.00;100062.41;6132444;23;20063;-84
2022/12/06 08:44:18;;;;;;;0.00;0.00;;;;;;;4.91;100.00;100064.75;6160610;23;20013;-82
2022/12/06 08:46:44;;;;;;;0.55;0.55;;;;;;;4.90;100.00;100055.72;6131537;23;20004;-82
2022/12/06 08:49:11;;;;;;;0.20;0.20;;;;;;;4.98;100.00;100061.97;6132035;23;20071;-82
2022/12/06 08:51:37;;;;;;;0.38;0.38;;;;;;;5.04;100.00;100065.88;6132689;23;20008;-82
2022/12/06 08:54:03;;;;;;;0.30;0.30;;;;;;;5.04;100.00;100060.38;6182740;23;20088;-82
2022/12/06 08:56:29;;;;;;;0.38;0.30;;;;;;;5.00;100.00;100059.59;6183168;23;20055;-82
2022/12/06 08:58:54;;;;;;;0.57;0.52;;;;;;;5.02;100.00;100059.97;6183272;23;20431;-83
2022/12/06 09:01:23;;;;;;;0.15;0.15;;;;;;;5.07;100.00;100065.06;6182304;23;20013;-82
2022/12/06 09:03:48;;;;;;;0.20;0.20;;;;;;;5.04;100.00;100060.38;6155826;23;20165;-82
2022/12/06 09:06:14;;;;;;;0.30;0.30;;;;;;;5.02;100.00;100051.72;6183133;23;20471;-82
2022/12/06 09:08:40;;;;;;;0.28;0.28;;;;;;;5.06;100.00;100052.50;6156508;23;20032;-82
2022/12/06 09:11:06;;;;;;;0.00;0.00;;;;;;;5.12;100.00;100050.91;6182630;23;20013;-82
2022/12/06 09:13:33;;;;;;;0.73;0.55;;;;;;;5.15;100.00;100052.84;6182437;23;19997;-82
2022/12/06 09:15:58;;;;;;;0.10;0.10;;;;;;;5.31;100.00;100052.38;6156697;23;20582;-82
2022/12/06 09:18:24;;;;;;;0.00;0.00;;;;;;;5.26;100.00;100033.56;6156304;23;20009;-84
2022/12/06 09:20:49;;;;;;;1.38;0.90;;;;;;;5.35;100.00;100036.66;6132326;23;20012;-82
2022/12/06 09:23:15;;;;;;;0.00;0.00;;;;;;;5.32;100.00;100035.50;6155793;23;20005;-82
2022/12/06 09:25:41;;;;;;;0.57;0.57;;;;;;;5.28;100.00;100026.47;6182468;23;20084;-82
2022/12/06 09:28:07;;;;;;;0.35;0.35;;;;;;;5.32;100.00;100024.50;6155250;23;20013;-82
2022/12/06 09:30:32;;;;;;;1.55;1.10;;;;;;;5.44;100.00;100007.53;6156128;23;20017;-82
2022/12/06 09:32:58;;;;;;;0.57;0.47;;;;;;;5.52;100.00;100020.03;6182235;23;20001;-82
2022/12/06 09:35:23;;;;;;;0.00;0.00;;;;;;;5.59;100.00;100024.72;6155623;23;20079;-82
2022/12/06 09:37:49;;;;;;;2.13;1.05;;;;;;;5.64;100.00;100032.53;6131078;23;20012;-82
2022/12/06 09:40:26;;;;;;;0.05;0.05;;;;;;;5.61;100.00;100034.16;6181770;23;20009;-82
2022/12/06 09:43:06;;;;;;;0.05;0.05;;;;;;;5.55;100.00;100019.22;6182339;23;20013;-82
2022/12/06 09:45:53;;;;;;;0.30;0.30;;;;;;;5.54;100.00;100031.41;6130855;23;20092;-82
2022/12/06 09:48:46;;;;;;;0.38;0.38;;;;;;;5.53;100.00;100020.84;6182260;23;20020;-82
2022/12/06 09:51:44;;;;;;;0.45;0.45;;;;;;;5.72;100.00;100030.53;6154816;23;20017;-82
2022/12/06 09:54:12;;;;;;;0.00;0.00;;;;;;;5.75;100.00;100027.75;6145138;23;20118;-82
2022/12/06 09:56:42;;;;;;;0.13;0.13;;;;;;;5.77;100.00;100024.59;6156119;23;20055;-82
2022/12/06 09:59:23;;;;;;;0.50;0.50;;;;;;;5.79;100.00;100022.19;6154856;23;20009;-84
2022/12/06 10:02:00;;;;;;;0.93;0.93;;;;;;;5.86;100.00;100023.00;6155435;23;20043;-84
2022/12/06 10:04:36;;;;;;;0.60;0.60;;;;;;;5.85;100.00;100020.59;6182203;23;20028;-82
2022/12/06 10:07:22;;;;;;;0.08;0.08;;;;;;;5.76;100.00;100010.03;6182131;23;20467;-82
2022/12/06 10:10:25;;;;;;;0.22;0.22;;;;;;;5.69;100.00;100012.06;6155996;23;20104;-83
2022/12/06 10:13:00;;;;;;;0.57;0.55;;;;;;;5.54;100.00;100001.16;6180328;23;20025;-83
2022/12/06 10:15:50;;;;;;;1.27;0.45;;;;;;;5.67;100.00;100019.94;6154248;23;20048;-83
2022/12/06 10:18:41;;;;;;;0.80;0.52;;;;;;;5.68;100.00;100013.25;6180659;23;20032;-81
2022/12/06 10:21:14;;;;;;;0.35;0.35;;;;;;;5.97;100.00;100017.38;6167885;23;20355;-81
2022/12/06 10:23:49;;;;;;;0.20;0.20;;;;;;;6.10;100.00;100015.69;6180827;23;20096;-80
2022/12/06 10:26:50;;;;;;;0.40;0.40;;;;;;;6.16;100.00;100007.75;6155168;23;20021;-81
2022/12/06 10:29:32;;;;;;;0.20;0.20;;;;;;;6.46;100.00;100021.66;6180199;23;20355;-81
2022/12/06 10:32:00;;;;;;;0.17;0.17;;;;;;;6.51;100.00;100015.69;6180201;23;20435;-81
2022/12/06 10:34:38;;;;;;;0.63;0.63;;;;;;;6.57;100.00;100023.09;6154837;23;20346;-83
2022/12/06 10:37:19;;;;;;;0.77;0.77;;;;;;;6.85;100.00;100016.47;6130580;23;20013;-81
2022/12/06 10:40:19;;;;;;;0.52;0.52;;;;;;;6.99;100.00;100015.53;6182756;23;20013;-80
2022/12/06 10:43:11;;;;;;;0.10;0.10;;;;;;;7.19;100.00;100019.22;6118309;23;20366;-80
2022/12/06 10:48:39;;;;;;;0.15;0.15;;;;;;;6.71;100.00;100024.13;6160237;23;20076;-81
2022/12/06 10:51:10;;;;;;;2.17;0.52;;;;;;;6.87;100.00;100008.59;6132395;23;20021;-81
2022/12/06 10:53:42;;;;;;;0.30;0.30;;;;;;;7.03;100.00;99999.72;6132120;23;20416;-84
2022/12/06 10:56:25;;;;;;;0.10;0.10;;;;;;;7.47;100.00;100007.78;6132155;23;20069;-84
2022/12/06 10:58:58;;;;;;;0.20;0.20;;;;;;;7.48;100.00;99992.75;6157577;23;20020;-85
2022/12/06 11:01:27;;;;;;;0.43;0.43;;;;;;;7.38;100.00;100007.50;6183136;23;20013;-86
2022/12/06 11:04:09;;;;;;;0.63;0.63;;;;;;;7.07;100.00;100005.97;6156511;23;20418;-83
2022/12/06 11:06:59;;;;;;;0.20;0.20;;;;;;;7.29;100.00;99998.97;6184069;23;20015;-83
2022/12/06 11:09:41;;;;;;;0.13;0.13;;;;;;;7.62;100.00;99999.25;6156213;23;20125;-86
2022/12/06 11:12:17;;;;;;;0.00;0.00;;;;;;;7.35;100.00;100005.59;6179942;23;20032;-83
2022/12/06 11:14:47;;;;;;;0.55;0.47;;;;;;;7.52;100.00;99983.66;6179582;23;20081;-80
2022/12/06 11:17:19;;;;;;;0.30;0.30;;;;;;;7.07;100.00;99994.94;6153821;23;20427;-81
2022/12/06 11:19:58;;;;;;;0.10;0.10;;;;;;;6.81;100.00;99995.66;6154253;23;20020;-80
2022/12/06 11:22:39;;;;;;;0.40;0.40;;;;;;;6.86;100.00;99982.19;6129911;23;20013;-80
2022/12/06 11:25:29;;;;;;;0.00;0.00;;;;;;;6.97;100.00;99984.81;6180543;23;20024;-80
2022/12/06 11:28:00;;;;;;;0.17;0.17;;;;;;;7.28;100.00;99983.59;6155773;23;20020;-80
2022/12/06 11:30:27;;;;;;;0.85;0.82;;;;;;;7.57;100.00;99988.69;6155230;23;20019;-80
2022/12/06 11:32:54;;;;;;;0.00;0.00;;;;;;;7.76;100.00;99966.72;6157258;23;20017;-81
2022/12/06 11:35:23;;;;;;;0.40;0.40;;;;;;;8.00;100.00;99967.50;6156876;23;20005;-84
2022/12/06 11:37:54;;;;;;;0.73;0.73;;;;;;;8.15;100.00;99966.03;6132937;23;20020;-84
2022/12/06 11:40:46;;;;;;;0.05;0.05;;;;;;;8.33;100.00;99974.78;6131875;23;20013;-84
2022/12/06 11:43:25;;;;;;;0.08;0.08;;;;;;;8.42;100.00;99969.50;6152304;23;20447;-84
2022/12/06 11:45:51;;;;;;;0.68;0.68;;;;;;;8.20;100.00;99973.84;6156755;23;20045;-84
2022/12/06 11:48:22;;;;;;;0.20;0.20;;;;;;;8.31;100.00;99963.38;6156409;23;20020;-84
2022/12/06 11:50:49;;;;;;;0.30;0.30;;;;;;;8.14;100.00;99966.44;6132646;23;20035;-80
2022/12/06 11:53:29;;;;;;;0.20;0.20;;;;;;;8.36;100.00;99968.44;6132367;23;20013;-84
2022/12/06 11:55:57;;;;;;;0.20;0.20;;;;;;;8.08;100.00;99968.13;6157351;23;20028;-84
2022/12/06 11:58:55;;;;;;;0.00;0.00;;;;;;;8.40;100.00;99969.16;6156924;23;20539;-84
2022/12/06 12:01:36;;;;;;;0.57;0.57;;;;;;;8.41;100.00;99958.88;6156120;23;20489;-84
2022/12/06 12:04:25;;;;;;;0.00;0.00;;;;;;;7.59;100.00;99964.22;6156552;23;20017;-84
2022/12/06 12:06:57;;;;;;;0.10;0.10;;;;;;;7.68;100.00;99961.72;6132900;23;20041;-84
2022/12/06 12:09:25;;;;;;;0.75;0.75;;;;;;;7.55;100.00;99957.97;6132617;23;20021;-84